createdAt,value
2018-05-31T00:02:21.206Z,19.75
2018-05-31T00:04:49.588Z,19.81
2018-05-31T00:07:17.934Z,19.80
2018-05-31T00:09:46.308Z,19.80
2018-05-31T00:12:15.442Z,19.81
2018-05-31T00:14:44.603Z,19.80
2018-05-31T00:17:13.383Z,19.80
2018-05-31T00:19:42.542Z,19.80
2018-05-31T00:22:11.683Z,19.83
2018-05-31T00:24:40.067Z,19.86
2018-05-31T00:27:08.423Z,19.85
2018-05-31T00:29:36.794Z,19.93
2018-05-31T00:32:05.131Z,19.98
2018-05-31T00:34:34.274Z,20.01
2018-05-31T00:37:02.671Z,19.98
2018-05-31T00:39:31.142Z,19.96
2018-05-31T00:41:59.531Z,19.94
2018-05-31T00:44:27.869Z,19.91
2018-05-31T00:46:56.271Z,19.90
2018-05-31T00:49:24.616Z,19.91
2018-05-31T00:51:53.770Z,19.91
2018-05-31T00:54:22.111Z,19.97
2018-05-31T00:56:50.499Z,19.96
2018-05-31T00:59:19.618Z,19.91
2018-05-31T01:01:47.967Z,19.83
2018-05-31T01:04:16.348Z,19.85
2018-05-31T01:06:44.699Z,19.82
2018-05-31T01:09:14.650Z,19.74
2018-05-31T01:11:42.988Z,19.69
2018-05-31T01:14:11.379Z,19.69
2018-05-31T01:16:39.781Z,19.74
2018-05-31T01:19:08.118Z,19.75
2018-05-31T01:21:37.262Z,19.75
2018-05-31T01:24:05.639Z,19.74
2018-05-31T01:26:34.111Z,19.73
2018-05-31T01:29:02.446Z,19.81
2018-05-31T01:31:31.545Z,19.82
2018-05-31T01:34:00.682Z,19.81
2018-05-31T01:36:29.041Z,19.85
2018-05-31T01:38:57.388Z,19.86
2018-05-31T01:41:26.551Z,19.90
2018-05-31T01:43:54.953Z,19.91
2018-05-31T01:46:24.060Z,19.88
2018-05-31T01:48:53.210Z,19.85
2018-05-31T01:51:21.570Z,19.84
2018-05-31T01:53:50.806Z,19.80
2018-05-31T01:56:19.206Z,19.75
2018-05-31T01:58:48.349Z,19.73
2018-05-31T02:01:16.681Z,19.70
2018-05-31T02:03:45.062Z,19.60
2018-05-31T02:06:14.234Z,19.46
2018-05-31T02:08:42.591Z,19.33
2018-05-31T02:11:10.964Z,19.18
2018-05-31T02:13:39.346Z,19.06
2018-05-31T02:16:07.698Z,18.95
2018-05-31T02:18:36.062Z,18.91
2018-05-31T02:21:04.454Z,18.90
2018-05-31T02:23:32.806Z,18.86
2018-05-31T02:26:01.951Z,18.76
2018-05-31T02:28:30.282Z,18.65
2018-05-31T02:30:59.421Z,18.56
2018-05-31T02:33:27.814Z,18.51
2018-05-31T02:35:56.197Z,18.45
2018-05-31T02:38:24.578Z,18.45
2018-05-31T02:40:52.913Z,18.43
2018-05-31T02:43:21.304Z,18.41
2018-05-31T02:45:49.686Z,18.43
2018-05-31T02:48:18.057Z,18.43
2018-05-31T02:50:47.147Z,18.48
2018-05-31T02:53:15.525Z,18.52
2018-05-31T02:55:43.886Z,18.55
2018-05-31T02:58:12.246Z,18.61
2018-05-31T03:00:41.390Z,18.60
2018-05-31T03:03:09.782Z,18.56
2018-05-31T03:05:38.161Z,18.54
2018-05-31T03:08:06.536Z,18.55
2018-05-31T03:10:35.115Z,18.56
2018-05-31T03:13:03.444Z,18.54
2018-05-31T03:15:32.593Z,18.55
2018-05-31T03:18:01.053Z,18.61
2018-05-31T03:20:29.435Z,18.65
2018-05-31T03:22:57.780Z,18.73
2018-05-31T03:25:26.888Z,18.81
2018-05-31T03:27:55.280Z,18.92
2018-05-31T03:30:23.668Z,19.03
2018-05-31T03:32:52.012Z,19.14
2018-05-31T03:35:20.412Z,19.18
2018-05-31T03:37:48.780Z,19.19
2018-05-31T03:40:17.141Z,19.21
2018-05-31T03:42:46.278Z,19.23
2018-05-31T03:45:14.658Z,19.25
2018-05-31T03:47:43.017Z,19.25
2018-05-31T03:50:11.419Z,19.25
2018-05-31T03:52:39.773Z,19.22
2018-05-31T03:55:08.133Z,19.21
2018-05-31T03:57:37.279Z,19.20
2018-05-31T04:00:05.633Z,19.20
2018-05-31T04:02:33.991Z,19.19
2018-05-31T04:05:02.345Z,19.18
2018-05-31T04:07:31.483Z,19.21
2018-05-31T04:09:59.828Z,19.28
2018-05-31T04:12:28.936Z,19.35
2018-05-31T04:14:58.077Z,19.39
2018-05-31T04:17:26.482Z,19.40
2018-05-31T04:19:54.868Z,19.46
2018-05-31T04:22:23.997Z,19.58
2018-05-31T04:24:52.373Z,19.67
2018-05-31T04:27:20.753Z,19.76
2018-05-31T04:29:49.844Z,19.78
2018-05-31T04:32:18.233Z,19.87
2018-05-31T04:34:47.388Z,19.91
2018-05-31T04:37:17.125Z,20.03
2018-05-31T04:39:46.233Z,20.11
2018-05-31T04:42:15.362Z,20.18
2018-05-31T04:44:43.836Z,20.29
2018-05-31T04:47:12.203Z,20.33
2018-05-31T04:49:40.585Z,20.39
2018-05-31T04:52:08.981Z,20.41
2018-05-31T04:54:37.336Z,20.47
2018-05-31T04:57:05.679Z,20.56
2018-05-31T04:59:34.051Z,20.72
2018-05-31T05:02:03.204Z,20.87
2018-05-31T05:04:31.576Z,21.01
2018-05-31T05:06:59.972Z,21.16
2018-05-31T05:09:28.307Z,21.23
2018-05-31T05:11:56.630Z,21.35
2018-05-31T05:14:25.073Z,21.53
2018-05-31T05:16:53.467Z,21.71
2018-05-31T05:19:21.856Z,21.91
2018-05-31T05:21:50.234Z,22.15
2018-05-31T05:24:18.571Z,22.39
2018-05-31T05:26:46.936Z,22.54
2018-05-31T05:29:16.205Z,22.70
2018-05-31T05:31:44.608Z,22.92
2018-05-31T05:34:13.738Z,23.11
2018-05-31T05:36:42.154Z,23.33
2018-05-31T05:39:10.511Z,23.44
2018-05-31T05:41:38.904Z,23.40
2018-05-31T05:44:07.246Z,23.40
2018-05-31T05:46:35.626Z,23.45
2018-05-31T05:49:04.005Z,23.53
2018-05-31T05:51:32.353Z,23.67
2018-05-31T05:54:00.733Z,23.76
2018-05-31T05:56:29.944Z,23.84
2018-05-31T05:58:58.266Z,23.92
2018-05-31T06:01:26.624Z,23.95
2018-05-31T06:03:55.011Z,23.96
2018-05-31T06:06:23.374Z,24.02
2018-05-31T06:08:51.763Z,24.07
2018-05-31T06:11:20.120Z,23.90
2018-05-31T06:13:48.520Z,23.77
2018-05-31T06:16:16.874Z,23.95
2018-05-31T06:18:45.228Z,24.12
2018-05-31T06:21:14.400Z,24.25
2018-05-31T06:23:42.742Z,24.35
2018-05-31T06:26:11.140Z,24.40
2018-05-31T06:28:39.484Z,24.47
2018-05-31T06:31:07.892Z,24.53
2018-05-31T06:33:36.274Z,24.58
2018-05-31T06:36:04.640Z,24.59
2018-05-31T06:38:32.992Z,24.63
2018-05-31T06:41:01.369Z,24.48
2018-05-31T06:43:30.856Z,24.62
2018-05-31T06:46:00.005Z,24.65
2018-05-31T06:48:28.347Z,24.67
2018-05-31T06:50:56.722Z,24.70
2018-05-31T06:53:25.812Z,24.61
2018-05-31T06:55:54.950Z,24.86
2018-05-31T06:58:23.268Z,24.93
2018-05-31T07:00:51.653Z,24.98
2018-05-31T07:03:20.748Z,25.06
2018-05-31T07:05:49.900Z,25.11
2018-05-31T07:08:18.620Z,25.19
2018-05-31T07:10:46.992Z,25.22
2018-05-31T07:13:15.365Z,25.31
2018-05-31T07:15:44.103Z,25.38
2018-05-31T07:18:12.471Z,25.35
2018-05-31T07:20:40.870Z,25.42
2018-05-31T07:23:09.256Z,25.46
2018-05-31T07:25:37.553Z,25.54
2018-05-31T07:28:05.884Z,25.56
2018-05-31T07:30:34.268Z,25.55
2018-05-31T07:33:02.590Z,25.59
2018-05-31T07:35:30.935Z,25.66
2018-05-31T07:37:59.291Z,25.72
2018-05-31T07:40:27.665Z,25.73
2018-05-31T07:42:55.999Z,25.83
2018-05-31T07:45:24.319Z,25.89
2018-05-31T07:47:53.437Z,25.84
2018-05-31T07:50:21.779Z,25.87
2018-05-31T07:52:50.906Z,25.84
2018-05-31T07:55:19.218Z,25.84
2018-05-31T07:57:47.571Z,25.89
2018-05-31T08:00:15.932Z,25.91
2018-05-31T08:02:44.289Z,25.90
2018-05-31T08:05:13.422Z,26.01
2018-05-31T08:07:41.747Z,26.02
2018-05-31T08:10:10.071Z,25.96
2018-05-31T08:12:38.463Z,26.04
2018-05-31T08:15:06.803Z,26.06
2018-05-31T08:17:35.894Z,26.06
2018-05-31T08:20:05.631Z,26.26
2018-05-31T08:22:34.005Z,26.31
2018-05-31T08:25:02.324Z,26.23
2018-05-31T08:27:30.673Z,26.32
2018-05-31T08:29:59.047Z,26.26
2018-05-31T08:32:27.415Z,26.39
2018-05-31T08:34:55.740Z,26.52
2018-05-31T08:37:24.101Z,26.58
2018-05-31T08:39:52.407Z,26.66
2018-05-31T08:42:20.782Z,26.77
2018-05-31T08:44:49.111Z,26.79
2018-05-31T08:47:17.421Z,26.72
2018-05-31T08:49:45.784Z,26.63
2018-05-31T08:52:14.150Z,26.59
2018-05-31T08:54:42.474Z,26.49
2018-05-31T08:57:10.852Z,26.48
2018-05-31T08:59:39.955Z,26.61
2018-05-31T09:02:09.107Z,26.74
2018-05-31T09:04:37.440Z,27.03
2018-05-31T09:07:06.555Z,27.18
2018-05-31T09:09:34.931Z,27.14
2018-05-31T09:12:03.993Z,27.32
2018-05-31T09:14:33.147Z,27.42
2018-05-31T09:17:01.609Z,27.28
2018-05-31T09:19:29.971Z,27.44
2018-05-31T09:21:58.296Z,27.42
2018-05-31T09:24:26.651Z,27.48
2018-05-31T09:26:54.999Z,27.00
2018-05-31T09:29:23.478Z,27.02
2018-05-31T09:31:51.822Z,27.12
2018-05-31T09:34:20.175Z,27.24
2018-05-31T09:36:48.551Z,27.01
2018-05-31T09:39:16.890Z,27.01
2018-05-31T09:41:45.242Z,27.11
2018-05-31T09:44:13.585Z,27.17
2018-05-31T09:46:41.974Z,27.23
2018-05-31T09:49:10.346Z,27.14
2018-05-31T09:51:38.732Z,27.10
2018-05-31T09:54:07.062Z,27.33
2018-05-31T09:56:35.446Z,27.66
2018-05-31T09:59:03.758Z,27.53
2018-05-31T10:01:32.083Z,27.30
2018-05-31T10:04:00.450Z,27.21
2018-05-31T10:06:29.556Z,27.34
2018-05-31T10:08:58.690Z,27.24
2018-05-31T10:11:27.062Z,27.31
2018-05-31T10:13:55.454Z,27.30
2018-05-31T10:16:23.790Z,27.35
2018-05-31T10:18:52.134Z,27.30
2018-05-31T10:21:20.491Z,27.40
2018-05-31T10:23:48.824Z,27.40
2018-05-31T10:26:17.189Z,27.87
2018-05-31T10:28:45.504Z,27.63
2018-05-31T10:31:13.866Z,27.44
2018-05-31T10:33:42.206Z,27.54
2018-05-31T10:36:10.544Z,27.54
2018-05-31T10:38:38.856Z,27.34
2018-05-31T10:41:07.228Z,27.30
2018-05-31T10:43:35.596Z,27.14
2018-05-31T10:46:03.922Z,27.13
2018-05-31T10:48:32.285Z,27.22
2018-05-31T10:51:00.597Z,27.35
2018-05-31T10:53:28.948Z,28.04
2018-05-31T10:55:58.445Z,28.05
2018-05-31T10:58:27.582Z,28.12
2018-05-31T11:00:55.964Z,28.52
2018-05-31T11:03:24.324Z,28.40
2018-05-31T11:05:52.686Z,28.15
2018-05-31T11:08:21.119Z,28.17
2018-05-31T11:10:49.490Z,28.51
2018-05-31T11:13:17.829Z,28.56
2018-05-31T11:15:46.305Z,28.51
2018-05-31T11:18:14.699Z,28.55
2018-05-31T11:20:43.075Z,28.42
2018-05-31T11:23:11.438Z,28.08
2018-05-31T11:25:39.947Z,28.25
2018-05-31T11:28:08.286Z,28.09
2018-05-31T11:30:37.381Z,27.97
2018-05-31T11:33:06.550Z,27.99
2018-05-31T11:35:34.950Z,28.33
2018-05-31T11:38:04.326Z,28.82
2018-05-31T11:40:32.716Z,28.89
2018-05-31T11:43:01.121Z,28.87
2018-05-31T11:45:29.494Z,29.22
2018-05-31T11:47:58.662Z,29.11
2018-05-31T11:50:27.002Z,28.84
2018-05-31T11:52:55.378Z,28.91
2018-05-31T11:55:23.720Z,28.90
2018-05-31T11:57:52.862Z,29.11
2018-05-31T12:00:21.212Z,28.61
2018-05-31T12:02:49.560Z,28.87
2018-05-31T12:05:18.668Z,28.50
2018-05-31T12:07:47.027Z,28.65
2018-05-31T12:10:15.400Z,29.21
2018-05-31T12:12:43.765Z,29.49
2018-05-31T12:15:12.214Z,29.37
2018-05-31T12:17:40.626Z,29.33
2018-05-31T12:20:08.972Z,29.33
2018-05-31T12:22:37.360Z,29.20
2018-05-31T12:25:05.716Z,29.32
2018-05-31T12:27:34.071Z,29.42
2018-05-31T12:30:03.258Z,29.81
2018-05-31T12:32:32.429Z,29.57
2018-05-31T12:35:00.806Z,29.36
2018-05-31T12:37:29.184Z,29.36
2018-05-31T12:39:57.528Z,29.73
2018-05-31T12:42:25.895Z,29.72
2018-05-31T12:44:54.261Z,30.22
2018-05-31T12:47:22.672Z,30.60
2018-05-31T12:49:51.045Z,30.91
2018-05-31T12:52:19.446Z,31.07
2018-05-31T12:54:47.827Z,31.46
2018-05-31T12:57:16.229Z,31.35
2018-05-31T12:59:44.573Z,30.72
2018-05-31T13:02:12.961Z,30.65
2018-05-31T13:04:41.301Z,30.74
2018-05-31T13:07:09.680Z,30.93
2018-05-31T13:09:38.009Z,30.92
2018-05-31T13:12:06.345Z,30.71
2018-05-31T13:14:34.706Z,30.55
2018-05-31T13:17:03.086Z,30.59
2018-05-31T13:19:31.452Z,30.19
2018-05-31T13:21:59.775Z,30.02
2018-05-31T13:24:28.121Z,29.58
2018-05-31T13:26:56.493Z,29.43
2018-05-31T13:29:24.914Z,29.94
2018-05-31T13:31:53.238Z,30.51
2018-05-31T13:34:22.358Z,30.18
2018-05-31T13:36:50.722Z,30.12
2018-05-31T13:39:19.095Z,29.83
2018-05-31T13:41:47.435Z,30.00
2018-05-31T13:44:15.780Z,30.47
2018-05-31T13:46:44.160Z,30.58
2018-05-31T13:49:12.505Z,30.62
2018-05-31T13:51:40.884Z,30.89
2018-05-31T13:54:09.248Z,30.72
2018-05-31T13:56:38.383Z,30.76
2018-05-31T13:59:06.736Z,30.59
2018-05-31T14:01:35.895Z,30.47
2018-05-31T14:04:04.258Z,30.63
2018-05-31T14:06:32.769Z,31.01
2018-05-31T14:09:01.236Z,31.29
2018-05-31T14:11:29.593Z,31.33
2018-05-31T14:13:57.947Z,31.47
2018-05-31T14:16:26.333Z,31.76
2018-05-31T14:18:54.670Z,32.50
2018-05-31T14:21:23.755Z,32.76
2018-05-31T14:23:52.118Z,32.82
2018-05-31T14:26:20.532Z,32.67
2018-05-31T14:28:48.919Z,33.18
2018-05-31T14:31:17.304Z,33.27
2018-05-31T14:33:45.712Z,32.92
2018-05-31T14:36:14.293Z,32.89
2018-05-31T14:38:42.688Z,32.51
2018-05-31T14:41:11.188Z,31.93
2018-05-31T14:46:08.012Z,30.26
2018-05-31T14:48:36.577Z,29.97
2018-05-31T14:51:05.017Z,29.90
2018-05-31T14:53:35.353Z,29.76
2018-05-31T14:56:04.552Z,29.90
2018-05-31T14:58:32.948Z,29.77
2018-05-31T15:01:01.371Z,29.81
2018-05-31T15:03:29.754Z,30.18
2018-05-31T15:05:58.109Z,30.56
2018-05-31T15:08:26.590Z,30.72
2018-05-31T15:10:54.938Z,30.75
2018-05-31T15:13:23.342Z,30.92
2018-05-31T15:15:51.696Z,30.53
2018-05-31T15:18:20.136Z,30.88
2018-05-31T15:20:48.518Z,30.94
2018-05-31T15:23:16.856Z,31.08
2018-05-31T15:25:45.255Z,30.54
2018-05-31T15:28:13.714Z,30.47
2018-05-31T15:30:42.092Z,30.27
2018-05-31T15:33:11.182Z,30.68
2018-05-31T15:35:39.556Z,30.47
2018-05-31T15:38:09.150Z,30.26
2018-05-31T15:40:37.502Z,30.04
2018-05-31T15:43:06.608Z,29.76
2018-05-31T15:45:35.748Z,29.74
2018-05-31T15:48:04.082Z,30.14
2018-05-31T15:50:32.434Z,30.71
2018-05-31T15:53:00.807Z,30.82
2018-05-31T15:55:29.186Z,30.72
2018-05-31T15:57:57.532Z,30.84
2018-05-31T16:00:25.878Z,31.22
2018-05-31T16:02:54.243Z,31.18
2018-05-31T16:05:23.403Z,31.52
2018-05-31T16:07:51.778Z,31.38
2018-05-31T16:10:20.135Z,30.95
2018-05-31T16:12:52.474Z,30.38
2018-05-31T16:15:20.868Z,30.29
2018-05-31T16:17:49.266Z,30.72
2018-05-31T16:20:17.680Z,31.36
2018-05-31T16:22:46.938Z,31.63
2018-05-31T16:25:15.344Z,31.74
2018-05-31T16:27:43.800Z,31.84
2018-05-31T16:30:12.190Z,31.90
2018-05-31T16:32:40.642Z,32.03
2018-05-31T16:35:09.885Z,32.05
2018-05-31T16:37:38.247Z,32.09
2018-05-31T16:40:06.723Z,32.19
2018-05-31T16:42:35.217Z,32.22
2018-05-31T16:45:03.649Z,32.26
2018-05-31T16:47:32.032Z,32.29
2018-05-31T16:50:00.395Z,32.34
2018-05-31T16:52:28.835Z,32.42
2018-05-31T16:54:57.487Z,32.51
2018-05-31T16:57:26.319Z,32.57
2018-05-31T16:59:54.693Z,32.68
2018-05-31T17:02:23.067Z,32.81
2018-05-31T17:04:51.530Z,32.95
2018-05-31T17:07:19.976Z,32.95
2018-05-31T17:09:48.356Z,33.05
2018-05-31T17:12:17.571Z,32.93
2018-05-31T17:14:46.132Z,33.00
2018-05-31T17:17:14.585Z,32.90
2018-05-31T17:19:43.766Z,32.83
2018-05-31T17:22:12.293Z,32.77
2018-05-31T17:24:40.757Z,32.61
2018-05-31T17:27:09.123Z,32.23
2018-05-31T17:29:39.379Z,32.01
2018-05-31T17:32:07.957Z,31.53
2018-05-31T17:34:36.336Z,31.56
2018-05-31T17:37:04.911Z,31.33
2018-05-31T17:39:34.545Z,31.21
2018-05-31T17:42:03.041Z,30.93
2018-05-31T17:44:35.279Z,30.56
2018-05-31T17:47:03.670Z,30.43
2018-05-31T17:49:32.107Z,30.11
2018-05-31T17:52:00.559Z,29.87
2018-05-31T17:54:28.966Z,29.66
2018-05-31T17:56:58.115Z,29.56
2018-05-31T17:59:27.590Z,29.41
2018-05-31T18:01:56.099Z,29.36
2018-05-31T18:04:24.537Z,29.21
2018-05-31T18:06:52.925Z,29.16
2018-05-31T18:09:21.283Z,29.13
2018-05-31T18:11:50.442Z,29.04
2018-05-31T18:14:19.027Z,28.98
2018-05-31T18:16:47.532Z,28.86
2018-05-31T18:19:15.968Z,28.73
2018-05-31T18:21:44.437Z,28.57
2018-05-31T18:24:12.862Z,28.43
2018-05-31T18:26:43.280Z,28.28
2018-05-31T18:29:11.680Z,28.21
2018-05-31T18:31:40.235Z,28.13
2018-05-31T18:34:10.188Z,28.02
2018-05-31T18:36:38.783Z,28.06
2018-05-31T18:39:07.946Z,27.96
2018-05-31T18:41:36.367Z,27.59
2018-05-31T18:44:04.773Z,27.47
2018-05-31T18:46:33.142Z,27.32
2018-05-31T18:49:02.306Z,27.30
2018-05-31T18:51:31.896Z,27.25
2018-05-31T18:54:01.070Z,27.04
2018-05-31T18:56:29.455Z,26.89
2018-05-31T18:58:57.938Z,26.67
2018-05-31T19:01:27.166Z,26.50
2018-05-31T19:03:55.907Z,26.27
2018-05-31T19:06:24.582Z,26.12
2018-05-31T19:08:53.010Z,25.97
2018-05-31T19:11:22.373Z,25.84
2018-05-31T19:13:56.538Z,25.73
2018-05-31T19:16:25.029Z,25.65
2018-05-31T19:18:59.342Z,25.57
2018-05-31T19:21:28.770Z,25.49
2018-05-31T19:23:57.241Z,25.42
2018-05-31T19:26:25.785Z,25.55
2018-05-31T19:28:55.121Z,25.61
2018-05-31T19:31:24.773Z,25.63
2018-05-31T19:33:55.262Z,25.67
2018-05-31T19:36:29.391Z,25.61
2018-05-31T19:38:57.870Z,25.70
2018-05-31T19:41:27.008Z,25.55
2018-05-31T19:47:02.971Z,25.31
2018-05-31T19:49:32.478Z,25.20
2018-05-31T19:52:06.476Z,25.03
2018-05-31T19:54:34.871Z,25.08
2018-05-31T19:57:04.617Z,25.06
2018-05-31T19:59:38.578Z,25.07
2018-05-31T20:02:12.842Z,24.99
2018-05-31T20:04:41.910Z,24.83
2018-05-31T20:07:11.059Z,24.70
2018-05-31T20:09:39.426Z,24.66
2018-05-31T20:12:07.802Z,24.78
2018-05-31T20:14:36.126Z,24.72
2018-05-31T20:17:04.513Z,24.70
2018-05-31T20:19:33.733Z,24.68
2018-05-31T20:22:02.854Z,24.53
2018-05-31T20:24:31.225Z,24.46
2018-05-31T20:26:59.593Z,24.48
2018-05-31T20:29:27.988Z,24.43
2018-05-31T20:31:56.364Z,24.34
2018-05-31T20:34:24.747Z,24.24
2018-05-31T20:36:53.086Z,24.10
2018-05-31T20:39:22.241Z,24.28
2018-05-31T20:41:50.595Z,24.19
2018-05-31T20:44:18.956Z,24.12
2018-05-31T20:46:47.285Z,24.11
2018-05-31T20:49:16.032Z,24.16
2018-05-31T20:51:44.876Z,24.05
2018-05-31T20:54:13.990Z,23.96
2018-05-31T20:56:42.735Z,23.89
2018-05-31T20:59:11.124Z,23.82
2018-05-31T21:01:39.448Z,23.78
2018-05-31T21:04:07.777Z,23.82
2018-05-31T21:06:36.123Z,23.76
2018-05-31T21:09:04.486Z,23.75
2018-05-31T21:11:32.853Z,23.68
2018-05-31T21:14:01.190Z,23.91
2018-05-31T21:16:29.552Z,24.19
2018-05-31T21:18:58.330Z,23.98
2018-05-31T21:21:26.681Z,23.74
2018-05-31T21:23:55.037Z,23.60
2018-05-31T21:26:24.147Z,23.58
2018-05-31T21:28:52.533Z,23.48
2018-05-31T21:31:21.001Z,23.48
2018-05-31T21:33:49.335Z,23.51
2018-05-31T21:36:17.799Z,23.59
2018-05-31T21:38:46.176Z,23.56
2018-05-31T21:41:14.558Z,23.51
2018-05-31T21:43:42.831Z,23.46
2018-05-31T21:46:11.205Z,23.51
2018-05-31T21:48:39.561Z,23.45
2018-05-31T21:51:07.929Z,23.42
2018-05-31T21:53:36.265Z,23.35
2018-05-31T21:56:04.615Z,23.34
2018-05-31T21:58:33.001Z,23.32
2018-05-31T22:01:01.463Z,23.25
2018-05-31T22:03:29.821Z,23.12
2018-05-31T22:05:58.620Z,23.15
2018-05-31T22:08:27.016Z,23.17
2018-05-31T22:10:55.406Z,23.38
2018-05-31T22:13:23.792Z,23.29
2018-05-31T22:15:52.157Z,23.37
2018-05-31T22:18:20.617Z,23.38
2018-05-31T22:20:49.733Z,23.20
2018-05-31T22:23:18.076Z,23.06
2018-05-31T22:25:46.456Z,23.06
2018-05-31T22:28:14.828Z,23.00
2018-05-31T22:30:43.241Z,22.96
2018-05-31T22:33:11.592Z,22.82
2018-05-31T22:36:03.312Z,22.85
2018-05-31T22:38:31.664Z,22.80
2018-05-31T22:41:00.040Z,22.96
2018-05-31T22:43:28.417Z,22.87
2018-05-31T22:45:56.811Z,22.78
2018-05-31T22:48:25.937Z,22.66
2018-05-31T22:50:54.306Z,22.58
2018-05-31T22:53:22.647Z,22.54
2018-05-31T22:55:51.013Z,22.55
2018-05-31T22:58:19.385Z,22.67
2018-05-31T23:00:47.714Z,22.57
2018-05-31T23:03:16.086Z,22.50
2018-05-31T23:05:44.408Z,22.49
2018-05-31T23:08:12.748Z,22.57
2018-05-31T23:10:41.115Z,22.59
2018-05-31T23:13:09.466Z,22.39
2018-05-31T23:15:37.856Z,22.29
2018-05-31T23:18:06.958Z,22.35
2018-05-31T23:20:36.200Z,22.39
2018-05-31T23:23:04.555Z,22.19
2018-05-31T23:25:32.866Z,22.10
2018-05-31T23:28:01.212Z,21.99
2018-05-31T23:30:29.635Z,22.04
2018-05-31T23:32:57.963Z,21.95
2018-05-31T23:35:26.407Z,21.89
2018-05-31T23:37:55.289Z,21.92
2018-05-31T23:40:23.622Z,21.81
2018-05-31T23:42:51.957Z,21.78
2018-05-31T23:45:21.111Z,21.77
2018-05-31T23:47:49.503Z,21.75
2018-05-31T23:50:17.878Z,21.83
2018-05-31T23:52:46.197Z,22.00
2018-05-31T23:55:15.330Z,21.81
2018-05-31T23:57:44.851Z,21.68
